sensor_id;sensor_type;location;lat;lon;timestamp;temperature;humidity
48686;DHT22;34485;51.536;3.816;2023-06-24T00:00:46;16.90;97.60
48686;DHT22;34485;51.536;3.816;2023-06-24T00:03:11;16.90;97.40
48686;DHT22;34485;51.536;3.816;2023-06-24T00:05:37;16.90;97.30
48686;DHT22;34485;51.536;3.816;2023-06-24T00:08:04;16.90;97.20
48686;DHT22;34485;51.536;3.816;2023-06-24T00:10:32;16.90;97.10
48686;DHT22;34485;51.536;3.816;2023-06-24T00:12:58;16.90;97.30
48686;DHT22;34485;51.536;3.816;2023-06-24T00:15:27;16.90;97.30
48686;DHT22;34485;51.536;3.816;2023-06-24T00:17:52;16.90;97.50
48686;DHT22;34485;51.536;3.816;2023-06-24T00:20:18;16.90;97.70
48686;DHT22;34485;51.536;3.816;2023-06-24T00:22:45;16.90;97.80
48686;DHT22;34485;51.536;3.816;2023-06-24T00:25:14;16.90;98.50
48686;DHT22;34485;51.536;3.816;2023-06-24T00:27:41;16.80;98.30
48686;DHT22;34485;51.536;3.816;2023-06-24T00:30:08;16.80;98.40
48686;DHT22;34485;51.536;3.816;2023-06-24T00:32:34;16.80;98.50
48686;DHT22;34485;51.536;3.816;2023-06-24T00:34:59;16.70;98.70
48686;DHT22;34485;51.536;3.816;2023-06-24T00:37:25;16.70;98.70
48686;DHT22;34485;51.536;3.816;2023-06-24T00:39:51;16.70;98.30
48686;DHT22;34485;51.536;3.816;2023-06-24T00:42:17;16.70;98.60
48686;DHT22;34485;51.536;3.816;2023-06-24T00:44:43;16.70;98.20
48686;DHT22;34485;51.536;3.816;2023-06-24T00:47:09;16.60;97.90
48686;DHT22;34485;51.536;3.816;2023-06-24T00:49:35;16.60;98.10
48686;DHT22;34485;51.536;3.816;2023-06-24T00:52:01;16.60;98.00
48686;DHT22;34485;51.536;3.816;2023-06-24T00:54:27;16.60;98.00
48686;DHT22;34485;51.536;3.816;2023-06-24T00:56:57;16.60;98.30
48686;DHT22;34485;51.536;3.816;2023-06-24T00:59:27;16.60;97.80
48686;DHT22;34485;51.536;3.816;2023-06-24T01:01:55;16.60;98.10
48686;DHT22;34485;51.536;3.816;2023-06-24T01:04:21;16.50;98.50
48686;DHT22;34485;51.536;3.816;2023-06-24T01:06:46;16.50;98.10
48686;DHT22;34485;51.536;3.816;2023-06-24T01:09:12;16.50;98.50
48686;DHT22;34485;51.536;3.816;2023-06-24T01:11:38;16.50;98.40
48686;DHT22;34485;51.536;3.816;2023-06-24T01:14:04;16.40;98.40
48686;DHT22;34485;51.536;3.816;2023-06-24T01:16:42;16.40;98.80
48686;DHT22;34485;51.536;3.816;2023-06-24T01:27:48;16.40;97.60
48686;DHT22;34485;51.536;3.816;2023-06-24T01:33:09;16.40;97.70
48686;DHT22;34485;51.536;3.816;2023-06-24T01:35:36;16.40;97.30
48686;DHT22;34485;51.536;3.816;2023-06-24T01:38:08;16.40;97.50
48686;DHT22;34485;51.536;3.816;2023-06-24T01:40:38;16.40;97.50
48686;DHT22;34485;51.536;3.816;2023-06-24T01:43:09;16.30;97.50
48686;DHT22;34485;51.536;3.816;2023-06-24T01:45:42;16.30;97.80
48686;DHT22;34485;51.536;3.816;2023-06-24T01:48:19;16.20;98.40
48686;DHT22;34485;51.536;3.816;2023-06-24T01:51:11;16.20;98.20
48686;DHT22;34485;51.536;3.816;2023-06-24T01:53:39;16.10;98.00
48686;DHT22;34485;51.536;3.816;2023-06-24T01:56:10;16.10;98.40
48686;DHT22;34485;51.536;3.816;2023-06-24T01:58:39;16.10;98.70
48686;DHT22;34485;51.536;3.816;2023-06-24T02:01:07;16.00;98.70
48686;DHT22;34485;51.536;3.816;2023-06-24T02:03:33;15.90;98.50
48686;DHT22;34485;51.536;3.816;2023-06-24T02:06:00;16.00;98.90
48686;DHT22;34485;51.536;3.816;2023-06-24T02:08:30;15.90;99.60
48686;DHT22;34485;51.536;3.816;2023-06-24T02:10:56;15.90;99.90
48686;DHT22;34485;51.536;3.816;2023-06-24T02:13:24;15.90;99.60
48686;DHT22;34485;51.536;3.816;2023-06-24T02:15:51;15.90;99.80
48686;DHT22;34485;51.536;3.816;2023-06-24T02:18:17;15.90;99.70
48686;DHT22;34485;51.536;3.816;2023-06-24T02:20:46;15.80;99.70
48686;DHT22;34485;51.536;3.816;2023-06-24T02:23:13;15.80;99.70
48686;DHT22;34485;51.536;3.816;2023-06-24T02:25:40;15.80;99.80
48686;DHT22;34485;51.536;3.816;2023-06-24T02:28:08;15.80;99.90
48686;DHT22;34485;51.536;3.816;2023-06-24T02:30:38;15.80;99.80
48686;DHT22;34485;51.536;3.816;2023-06-24T02:33:05;15.70;99.80
48686;DHT22;34485;51.536;3.816;2023-06-24T02:35:30;15.70;99.70
48686;DHT22;34485;51.536;3.816;2023-06-24T02:37:56;15.70;99.90
48686;DHT22;34485;51.536;3.816;2023-06-24T02:40:21;15.70;99.90
48686;DHT22;34485;51.536;3.816;2023-06-24T02:42:47;15.70;99.70
48686;DHT22;34485;51.536;3.816;2023-06-24T02:45:13;15.70;99.70
48686;DHT22;34485;51.536;3.816;2023-06-24T02:47:41;15.70;99.90
48686;DHT22;34485;51.536;3.816;2023-06-24T02:50:09;15.70;99.90
48686;DHT22;34485;51.536;3.816;2023-06-24T02:52:35;15.70;99.60
48686;DHT22;34485;51.536;3.816;2023-06-24T02:55:03;15.70;99.60
48686;DHT22;34485;51.536;3.816;2023-06-24T02:57:30;15.80;99.60
48686;DHT22;34485;51.536;3.816;2023-06-24T02:59:55;15.70;99.60
48686;DHT22;34485;51.536;3.816;2023-06-24T03:02:21;15.70;99.90
48686;DHT22;34485;51.536;3.816;2023-06-24T03:04:49;15.70;99.90
48686;DHT22;34485;51.536;3.816;2023-06-24T03:07:16;15.70;99.90
48686;DHT22;34485;51.536;3.816;2023-06-24T03:09:46;15.60;99.90
48686;DHT22;34485;51.536;3.816;2023-06-24T03:12:11;15.60;99.90
48686;DHT22;34485;51.536;3.816;2023-06-24T03:14:37;15.60;99.90
48686;DHT22;34485;51.536;3.816;2023-06-24T03:17:03;15.60;99.90
48686;DHT22;34485;51.536;3.816;2023-06-24T03:19:29;15.60;99.90
48686;DHT22;34485;51.536;3.816;2023-06-24T03:21:54;15.60;99.90
48686;DHT22;34485;51.536;3.816;2023-06-24T03:24:20;15.60;99.90
48686;DHT22;34485;51.536;3.816;2023-06-24T03:26:46;15.60;99.90
48686;DHT22;34485;51.536;3.816;2023-06-24T03:29:12;15.60;99.90
48686;DHT22;34485;51.536;3.816;2023-06-24T03:31:38;15.60;99.90
48686;DHT22;34485;51.536;3.816;2023-06-24T03:34:09;15.60;99.90
48686;DHT22;34485;51.536;3.816;2023-06-24T03:36:35;15.60;99.90
48686;DHT22;34485;51.536;3.816;2023-06-24T03:39:04;15.60;99.90
48686;DHT22;34485;51.536;3.816;2023-06-24T03:41:29;15.60;99.90
48686;DHT22;34485;51.536;3.816;2023-06-24T03:43:55;15.60;99.90
48686;DHT22;34485;51.536;3.816;2023-06-24T03:46:21;15.60;99.90
48686;DHT22;34485;51.536;3.816;2023-06-24T03:48:47;15.60;99.90
48686;DHT22;34485;51.536;3.816;2023-06-24T03:51:12;15.60;99.90
48686;DHT22;34485;51.536;3.816;2023-06-24T03:53:38;15.60;99.90
48686;DHT22;34485;51.536;3.816;2023-06-24T03:56:04;15.60;99.90
48686;DHT22;34485;51.536;3.816;2023-06-24T03:58:30;15.70;99.90
48686;DHT22;34485;51.536;3.816;2023-06-24T04:00:58;15.70;99.90
48686;DHT22;34485;51.536;3.816;2023-06-24T04:03:24;15.80;99.90
48686;DHT22;34485;51.536;3.816;2023-06-24T04:05:55;15.80;99.90
48686;DHT22;34485;51.536;3.816;2023-06-24T04:08:21;15.90;99.90
48686;DHT22;34485;51.536;3.816;2023-06-24T04:10:47;15.90;99.90
48686;DHT22;34485;51.536;3.816;2023-06-24T04:13:13;16.00;99.90
48686;DHT22;34485;51.536;3.816;2023-06-24T04:15:38;16.10;99.90
48686;DHT22;34485;51.536;3.816;2023-06-24T04:18:04;16.10;99.90
48686;DHT22;34485;51.536;3.816;2023-06-24T04:20:30;16.20;99.90
48686;DHT22;34485;51.536;3.816;2023-06-24T04:22:55;16.30;99.90
48686;DHT22;34485;51.536;3.816;2023-06-24T04:25:21;16.30;99.90
48686;DHT22;34485;51.536;3.816;2023-06-24T04:27:46;16.40;99.80
48686;DHT22;34485;51.536;3.816;2023-06-24T04:30:12;16.40;99.90
48686;DHT22;34485;51.536;3.816;2023-06-24T04:32:38;16.50;99.90
48686;DHT22;34485;51.536;3.816;2023-06-24T04:35:04;16.50;99.90
48686;DHT22;34485;51.536;3.816;2023-06-24T04:37:29;16.60;99.90
48686;DHT22;34485;51.536;3.816;2023-06-24T04:39:55;16.60;99.80
48686;DHT22;34485;51.536;3.816;2023-06-24T04:42:21;16.70;99.80
48686;DHT22;34485;51.536;3.816;2023-06-24T04:44:48;16.80;99.60
48686;DHT22;34485;51.536;3.816;2023-06-24T04:47:19;16.80;99.40
48686;DHT22;34485;51.536;3.816;2023-06-24T04:49:44;16.90;99.50
48686;DHT22;34485;51.536;3.816;2023-06-24T04:52:13;16.90;99.80
48686;DHT22;34485;51.536;3.816;2023-06-24T04:54:39;17.00;99.40
48686;DHT22;34485;51.536;3.816;2023-06-24T04:57:08;17.10;99.30
48686;DHT22;34485;51.536;3.816;2023-06-24T04:59:34;17.10;99.30
48686;DHT22;34485;51.536;3.816;2023-06-24T05:01:59;17.20;99.40
48686;DHT22;34485;51.536;3.816;2023-06-24T05:04:25;17.40;99.50
48686;DHT22;34485;51.536;3.816;2023-06-24T05:06:51;17.40;99.80
48686;DHT22;34485;51.536;3.816;2023-06-24T05:09:17;17.50;99.80
48686;DHT22;34485;51.536;3.816;2023-06-24T05:11:42;17.60;99.70
48686;DHT22;34485;51.536;3.816;2023-06-24T05:14:08;17.70;99.70
48686;DHT22;34485;51.536;3.816;2023-06-24T05:16:34;17.80;99.50
48686;DHT22;34485;51.536;3.816;2023-06-24T05:18:59;18.00;99.60
48686;DHT22;34485;51.536;3.816;2023-06-24T05:21:25;18.10;99.50
48686;DHT22;34485;51.536;3.816;2023-06-24T05:23:51;18.20;99.40
48686;DHT22;34485;51.536;3.816;2023-06-24T05:26:16;18.30;99.40
48686;DHT22;34485;51.536;3.816;2023-06-24T05:28:42;18.40;99.20
48686;DHT22;34485;51.536;3.816;2023-06-24T05:31:07;18.60;99.10
48686;DHT22;34485;51.536;3.816;2023-06-24T05:33:33;18.70;99.10
48686;DHT22;34485;51.536;3.816;2023-06-24T05:35:59;18.80;98.70
48686;DHT22;34485;51.536;3.816;2023-06-24T05:38:24;18.80;97.70
48686;DHT22;34485;51.536;3.816;2023-06-24T05:40:50;19.00;98.10
48686;DHT22;34485;51.536;3.816;2023-06-24T05:43:15;19.00;97.90
48686;DHT22;34485;51.536;3.816;2023-06-24T05:45:41;19.00;97.80
48686;DHT22;34485;51.536;3.816;2023-06-24T05:48:06;19.10;97.70
48686;DHT22;34485;51.536;3.816;2023-06-24T05:50:32;19.10;97.70
48686;DHT22;34485;51.536;3.816;2023-06-24T05:52:58;19.20;97.80
48686;DHT22;34485;51.536;3.816;2023-06-24T05:55:23;19.20;97.70
48686;DHT22;34485;51.536;3.816;2023-06-24T05:57:49;19.30;97.90
48686;DHT22;34485;51.536;3.816;2023-06-24T06:00:16;19.30;97.80
48686;DHT22;34485;51.536;3.816;2023-06-24T06:02:42;19.40;97.60
48686;DHT22;34485;51.536;3.816;2023-06-24T06:05:08;19.50;97.50
48686;DHT22;34485;51.536;3.816;2023-06-24T06:07:34;19.50;96.70
48686;DHT22;34485;51.536;3.816;2023-06-24T06:10:00;19.60;96.80
48686;DHT22;34485;51.536;3.816;2023-06-24T06:12:26;19.60;96.90
48686;DHT22;34485;51.536;3.816;2023-06-24T06:14:51;19.70;97.00
48686;DHT22;34485;51.536;3.816;2023-06-24T06:17:17;19.70;96.60
48686;DHT22;34485;51.536;3.816;2023-06-24T06:19:43;19.70;96.50
48686;DHT22;34485;51.536;3.816;2023-06-24T06:22:12;19.70;96.60
48686;DHT22;34485;51.536;3.816;2023-06-24T06:24:37;19.70;96.50
48686;DHT22;34485;51.536;3.816;2023-06-24T06:27:03;19.70;96.50
48686;DHT22;34485;51.536;3.816;2023-06-24T06:29:29;19.80;96.60
48686;DHT22;34485;51.536;3.816;2023-06-24T06:31:55;19.80;96.80
48686;DHT22;34485;51.536;3.816;2023-06-24T06:34:22;19.80;96.80
48686;DHT22;34485;51.536;3.816;2023-06-24T06:36:48;19.80;96.70
48686;DHT22;34485;51.536;3.816;2023-06-24T06:39:13;19.90;97.20
48686;DHT22;34485;51.536;3.816;2023-06-24T06:41:39;20.00;97.20
48686;DHT22;34485;51.536;3.816;2023-06-24T06:44:04;20.00;96.90
48686;DHT22;34485;51.536;3.816;2023-06-24T06:46:30;20.10;97.20
48686;DHT22;34485;51.536;3.816;2023-06-24T06:48:56;20.10;97.00
48686;DHT22;34485;51.536;3.816;2023-06-24T06:51:21;20.20;97.00
48686;DHT22;34485;51.536;3.816;2023-06-24T06:53:49;20.20;97.10
48686;DHT22;34485;51.536;3.816;2023-06-24T06:56:23;20.30;97.10
48686;DHT22;34485;51.536;3.816;2023-06-24T06:58:53;20.40;97.20
48686;DHT22;34485;51.536;3.816;2023-06-24T07:03:45;20.70;96.60
48686;DHT22;34485;51.536;3.816;2023-06-24T07:06:11;20.90;96.60
48686;DHT22;34485;51.536;3.816;2023-06-24T07:08:36;21.10;96.10
48686;DHT22;34485;51.536;3.816;2023-06-24T07:11:02;21.30;95.10
48686;DHT22;34485;51.536;3.816;2023-06-24T07:13:28;21.50;95.00
48686;DHT22;34485;51.536;3.816;2023-06-24T07:15:54;21.70;94.40
48686;DHT22;34485;51.536;3.816;2023-06-24T07:18:19;22.10;94.20
48686;DHT22;34485;51.536;3.816;2023-06-24T07:20:45;22.60;94.40
48686;DHT22;34485;51.536;3.816;2023-06-24T07:23:11;23.30;92.70
48686;DHT22;34485;51.536;3.816;2023-06-24T07:25:37;24.40;89.00
48686;DHT22;34485;51.536;3.816;2023-06-24T07:28:02;25.30;84.20
48686;DHT22;34485;51.536;3.816;2023-06-24T07:30:28;26.30;80.90
48686;DHT22;34485;51.536;3.816;2023-06-24T07:32:54;27.20;75.70
48686;DHT22;34485;51.536;3.816;2023-06-24T07:35:19;28.20;73.80
48686;DHT22;34485;51.536;3.816;2023-06-24T07:37:45;28.80;70.60
48686;DHT22;34485;51.536;3.816;2023-06-24T07:40:11;29.70;67.70
48686;DHT22;34485;51.536;3.816;2023-06-24T07:42:37;30.50;63.60
48686;DHT22;34485;51.536;3.816;2023-06-24T07:45:03;31.30;60.00
48686;DHT22;34485;51.536;3.816;2023-06-24T07:47:28;31.70;56.90
48686;DHT22;34485;51.536;3.816;2023-06-24T07:49:54;32.30;56.70
48686;DHT22;34485;51.536;3.816;2023-06-24T07:52:20;33.30;53.70
48686;DHT22;34485;51.536;3.816;2023-06-24T07:54:45;34.00;50.40
48686;DHT22;34485;51.536;3.816;2023-06-24T07:57:11;34.80;48.30
48686;DHT22;34485;51.536;3.816;2023-06-24T07:59:36;35.30;48.00
48686;DHT22;34485;51.536;3.816;2023-06-24T08:02:02;35.80;46.10
48686;DHT22;34485;51.536;3.816;2023-06-24T08:06:54;36.80;97.50
48686;DHT22;34485;51.536;3.816;2023-06-24T08:09:20;37.10;42.20
48686;DHT22;34485;51.536;3.816;2023-06-24T08:11:45;37.60;41.00
48686;DHT22;34485;51.536;3.816;2023-06-24T08:14:11;37.90;41.20
48686;DHT22;34485;51.536;3.816;2023-06-24T08:19:03;38.40;38.30
48686;DHT22;34485;51.536;3.816;2023-06-24T08:21:29;38.80;39.30
48686;DHT22;34485;51.536;3.816;2023-06-24T08:23:55;39.30;39.10
48686;DHT22;34485;51.536;3.816;2023-06-24T08:26:20;39.40;37.90
48686;DHT22;34485;51.536;3.816;2023-06-24T08:28:47;39.60;37.50
48686;DHT22;34485;51.536;3.816;2023-06-24T08:31:13;39.70;37.00
48686;DHT22;34485;51.536;3.816;2023-06-24T08:33:42;40.00;37.30
48686;DHT22;34485;51.536;3.816;2023-06-24T08:36:08;40.40;36.40
48686;DHT22;34485;51.536;3.816;2023-06-24T08:38:34;40.50;36.00
48686;DHT22;34485;51.536;3.816;2023-06-24T08:40:59;40.70;35.60
48686;DHT22;34485;51.536;3.816;2023-06-24T08:43:25;40.50;34.70
48686;DHT22;34485;51.536;3.816;2023-06-24T08:45:51;40.40;35.00
48686;DHT22;34485;51.536;3.816;2023-06-24T08:48:17;40.00;36.40
48686;DHT22;34485;51.536;3.816;2023-06-24T08:50:48;40.00;36.30
48686;DHT22;34485;51.536;3.816;2023-06-24T08:53:15;40.00;36.50
48686;DHT22;34485;51.536;3.816;2023-06-24T08:58:13;40.80;34.70
48686;DHT22;34485;51.536;3.816;2023-06-24T09:00:39;41.20;34.30
48686;DHT22;34485;51.536;3.816;2023-06-24T09:03:08;41.60;34.20
48686;DHT22;34485;51.536;3.816;2023-06-24T09:05:33;42.00;33.70
48686;DHT22;34485;51.536;3.816;2023-06-24T09:07:59;42.20;33.20
48686;DHT22;34485;51.536;3.816;2023-06-24T09:10:35;42.50;32.50
48686;DHT22;34485;51.536;3.816;2023-06-24T09:13:06;42.50;32.30
48686;DHT22;34485;51.536;3.816;2023-06-24T09:15:33;42.40;31.90
48686;DHT22;34485;51.536;3.816;2023-06-24T09:17:58;42.10;32.60
48686;DHT22;34485;51.536;3.816;2023-06-24T09:20:26;41.90;33.60
48686;DHT22;34485;51.536;3.816;2023-06-24T09:22:58;41.80;33.50
48686;DHT22;34485;51.536;3.816;2023-06-24T09:25:24;41.90;33.60
48686;DHT22;34485;51.536;3.816;2023-06-24T09:27:49;41.90;33.20
48686;DHT22;34485;51.536;3.816;2023-06-24T09:30:19;42.00;32.80
48686;DHT22;34485;51.536;3.816;2023-06-24T09:32:46;41.90;32.90
48686;DHT22;34485;51.536;3.816;2023-06-24T09:35:13;42.00;33.40
48686;DHT22;34485;51.536;3.816;2023-06-24T09:37:38;41.50;32.80
48686;DHT22;34485;51.536;3.816;2023-06-24T09:40:05;41.40;33.70
48686;DHT22;34485;51.536;3.816;2023-06-24T09:42:32;41.20;34.00
48686;DHT22;34485;51.536;3.816;2023-06-24T09:44:57;41.70;34.10
48686;DHT22;34485;51.536;3.816;2023-06-24T09:47:23;41.60;33.60
48686;DHT22;34485;51.536;3.816;2023-06-24T09:49:54;41.00;34.30
48686;DHT22;34485;51.536;3.816;2023-06-24T09:52:20;40.50;34.90
48686;DHT22;34485;51.536;3.816;2023-06-24T09:54:50;40.20;35.60
48686;DHT22;34485;51.536;3.816;2023-06-24T09:57:20;39.70;36.10
48686;DHT22;34485;51.536;3.816;2023-06-24T09:59:48;39.80;36.70
48686;DHT22;34485;51.536;3.816;2023-06-24T10:02:15;39.60;35.90
48686;DHT22;34485;51.536;3.816;2023-06-24T10:04:41;38.70;36.80
48686;DHT22;34485;51.536;3.816;2023-06-24T10:07:08;38.80;38.10
48686;DHT22;34485;51.536;3.816;2023-06-24T10:09:33;38.80;38.40
48686;DHT22;34485;51.536;3.816;2023-06-24T10:12:00;39.00;37.90
48686;DHT22;34485;51.536;3.816;2023-06-24T10:14:25;39.40;36.50
48686;DHT22;34485;51.536;3.816;2023-06-24T10:16:51;39.80;36.40
48686;DHT22;34485;51.536;3.816;2023-06-24T10:19:20;40.20;36.30
48686;DHT22;34485;51.536;3.816;2023-06-24T10:21:53;40.70;35.20
48686;DHT22;34485;51.536;3.816;2023-06-24T10:26:57;41.30;33.40
48686;DHT22;34485;51.536;3.816;2023-06-24T10:29:31;41.30;33.90
48686;DHT22;34485;51.536;3.816;2023-06-24T10:32:02;40.70;35.60
48686;DHT22;34485;51.536;3.816;2023-06-24T10:34:41;40.40;34.60
48686;DHT22;34485;51.536;3.816;2023-06-24T10:44:53;40.00;36.00
48686;DHT22;34485;51.536;3.816;2023-06-24T10:47:21;39.70;34.60
48686;DHT22;34485;51.536;3.816;2023-06-24T10:49:46;39.50;36.10
48686;DHT22;34485;51.536;3.816;2023-06-24T10:52:12;39.50;36.70
48686;DHT22;34485;51.536;3.816;2023-06-24T10:54:39;39.40;36.50
48686;DHT22;34485;51.536;3.816;2023-06-24T10:57:06;39.80;36.00
48686;DHT22;34485;51.536;3.816;2023-06-24T10:59:39;39.60;35.70
48686;DHT22;34485;51.536;3.816;2023-06-24T11:02:08;39.80;36.80
48686;DHT22;34485;51.536;3.816;2023-06-24T11:07:14;40.40;34.40
48686;DHT22;34485;51.536;3.816;2023-06-24T11:09:41;40.00;35.00
48686;DHT22;34485;51.536;3.816;2023-06-24T11:12:11;39.90;36.10
48686;DHT22;34485;51.536;3.816;2023-06-24T11:14:38;39.70;35.20
48686;DHT22;34485;51.536;3.816;2023-06-24T11:17:04;39.80;36.00
48686;DHT22;34485;51.536;3.816;2023-06-24T11:19:30;39.80;35.60
48686;DHT22;34485;51.536;3.816;2023-06-24T11:22:03;39.80;36.80
48686;DHT22;34485;51.536;3.816;2023-06-24T11:24:28;39.80;35.50
48686;DHT22;34485;51.536;3.816;2023-06-24T11:26:55;39.40;36.30
48686;DHT22;34485;51.536;3.816;2023-06-24T11:29:22;38.90;37.50
48686;DHT22;34485;51.536;3.816;2023-06-24T11:31:49;38.70;37.10
48686;DHT22;34485;51.536;3.816;2023-06-24T11:34:15;38.50;36.90
48686;DHT22;34485;51.536;3.816;2023-06-24T11:36:40;38.60;37.70
48686;DHT22;34485;51.536;3.816;2023-06-24T11:39:06;38.60;37.60
48686;DHT22;34485;51.536;3.816;2023-06-24T11:41:32;38.40;37.70
48686;DHT22;34485;51.536;3.816;2023-06-24T11:43:58;38.60;37.00
48686;DHT22;34485;51.536;3.816;2023-06-24T11:46:28;38.20;38.40
48686;DHT22;34485;51.536;3.816;2023-06-24T11:49:07;37.50;39.00
48686;DHT22;34485;51.536;3.816;2023-06-24T11:51:33;37.10;40.30
48686;DHT22;34485;51.536;3.816;2023-06-24T11:54:00;37.20;40.40
48686;DHT22;34485;51.536;3.816;2023-06-24T11:59:15;36.50;41.20
48686;DHT22;34485;51.536;3.816;2023-06-24T12:01:44;35.80;41.00
48686;DHT22;34485;51.536;3.816;2023-06-24T12:04:13;35.70;42.10
48686;DHT22;34485;51.536;3.816;2023-06-24T12:06:44;35.40;43.60
48686;DHT22;34485;51.536;3.816;2023-06-24T12:09:10;35.00;43.40
48686;DHT22;34485;51.536;3.816;2023-06-24T12:11:36;34.40;43.90
48686;DHT22;34485;51.536;3.816;2023-06-24T12:14:02;34.10;45.70
48686;DHT22;34485;51.536;3.816;2023-06-24T12:16:29;33.90;45.60
48686;DHT22;34485;51.536;3.816;2023-06-24T12:18:55;33.40;45.70
48686;DHT22;34485;51.536;3.816;2023-06-24T12:21:20;33.20;47.30
48686;DHT22;34485;51.536;3.816;2023-06-24T12:23:46;33.10;47.20
48686;DHT22;34485;51.536;3.816;2023-06-24T12:26:12;32.70;49.30
48686;DHT22;34485;51.536;3.816;2023-06-24T12:28:38;32.40;48.20
48686;DHT22;34485;51.536;3.816;2023-06-24T12:31:04;32.20;50.00
48686;DHT22;34485;51.536;3.816;2023-06-24T12:33:32;32.20;49.70
48686;DHT22;34485;51.536;3.816;2023-06-24T12:35:59;32.00;51.50
48686;DHT22;34485;51.536;3.816;2023-06-24T12:38:24;32.00;52.60
48686;DHT22;34485;51.536;3.816;2023-06-24T12:40:50;31.90;50.50
48686;DHT22;34485;51.536;3.816;2023-06-24T12:43:15;32.00;51.50
48686;DHT22;34485;51.536;3.816;2023-06-24T12:45:41;31.80;51.10
48686;DHT22;34485;51.536;3.816;2023-06-24T12:48:11;31.70;52.20
48686;DHT22;34485;51.536;3.816;2023-06-24T12:50:36;31.70;51.30
48686;DHT22;34485;51.536;3.816;2023-06-24T12:53:02;31.80;52.10
48686;DHT22;34485;51.536;3.816;2023-06-24T12:55:29;31.70;50.50
48686;DHT22;34485;51.536;3.816;2023-06-24T12:57:55;31.70;49.50
48686;DHT22;34485;51.536;3.816;2023-06-24T13:00:21;31.70;51.50
48686;DHT22;34485;51.536;3.816;2023-06-24T13:02:47;31.50;48.70
48686;DHT22;34485;51.536;3.816;2023-06-24T13:05:13;31.50;51.00
48686;DHT22;34485;51.536;3.816;2023-06-24T13:07:39;31.40;50.70
48686;DHT22;34485;51.536;3.816;2023-06-24T13:10:05;31.20;51.30
48686;DHT22;34485;51.536;3.816;2023-06-24T13:12:34;31.20;50.80
48686;DHT22;34485;51.536;3.816;2023-06-24T13:15:01;31.20;51.40
48686;DHT22;34485;51.536;3.816;2023-06-24T13:17:27;31.00;51.80
48686;DHT22;34485;51.536;3.816;2023-06-24T13:19:52;30.80;52.30
48686;DHT22;34485;51.536;3.816;2023-06-24T13:22:18;30.70;52.90
48686;DHT22;34485;51.536;3.816;2023-06-24T13:24:44;30.60;51.90
48686;DHT22;34485;51.536;3.816;2023-06-24T13:27:10;30.40;54.40
48686;DHT22;34485;51.536;3.816;2023-06-24T13:29:36;30.30;53.90
48686;DHT22;34485;51.536;3.816;2023-06-24T13:32:02;30.10;54.30
48686;DHT22;34485;51.536;3.816;2023-06-24T13:34:28;30.00;53.30
48686;DHT22;34485;51.536;3.816;2023-06-24T13:36:54;30.10;56.50
48686;DHT22;34485;51.536;3.816;2023-06-24T13:39:20;30.10;53.90
48686;DHT22;34485;51.536;3.816;2023-06-24T13:41:49;30.00;56.10
48686;DHT22;34485;51.536;3.816;2023-06-24T13:44:15;29.90;54.40
48686;DHT22;34485;51.536;3.816;2023-06-24T13:46:41;29.90;53.80
48686;DHT22;34485;51.536;3.816;2023-06-24T13:49:07;29.90;51.40
48686;DHT22;34485;51.536;3.816;2023-06-24T13:51:32;29.80;55.50
48686;DHT22;34485;51.536;3.816;2023-06-24T13:53:58;29.70;52.90
48686;DHT22;34485;51.536;3.816;2023-06-24T13:56:25;29.70;51.60
48686;DHT22;34485;51.536;3.816;2023-06-24T13:58:52;29.70;55.10
48686;DHT22;34485;51.536;3.816;2023-06-24T14:01:18;29.70;55.00
48686;DHT22;34485;51.536;3.816;2023-06-24T14:03:45;29.60;55.60
48686;DHT22;34485;51.536;3.816;2023-06-24T14:06:12;29.60;62.40
48686;DHT22;34485;51.536;3.816;2023-06-24T14:08:39;29.40;63.40
48686;DHT22;34485;51.536;3.816;2023-06-24T14:11:04;29.20;62.60
48686;DHT22;34485;51.536;3.816;2023-06-24T14:13:30;29.10;64.10
48686;DHT22;34485;51.536;3.816;2023-06-24T14:15:57;29.00;65.00
48686;DHT22;34485;51.536;3.816;2023-06-24T14:18:23;28.80;65.80
48686;DHT22;34485;51.536;3.816;2023-06-24T14:20:49;28.70;66.60
48686;DHT22;34485;51.536;3.816;2023-06-24T14:23:15;28.60;66.50
48686;DHT22;34485;51.536;3.816;2023-06-24T14:25:40;28.40;68.20
48686;DHT22;34485;51.536;3.816;2023-06-24T14:28:06;28.30;67.30
48686;DHT22;34485;51.536;3.816;2023-06-24T14:30:33;28.20;67.50
48686;DHT22;34485;51.536;3.816;2023-06-24T14:33:00;28.20;68.80
48686;DHT22;34485;51.536;3.816;2023-06-24T14:35:25;28.20;68.80
48686;DHT22;34485;51.536;3.816;2023-06-24T14:37:51;28.20;68.50
48686;DHT22;34485;51.536;3.816;2023-06-24T14:40:17;28.20;71.00
48686;DHT22;34485;51.536;3.816;2023-06-24T14:42:43;28.20;69.40
48686;DHT22;34485;51.536;3.816;2023-06-24T14:45:08;28.10;70.40
48686;DHT22;34485;51.536;3.816;2023-06-24T14:47:34;28.00;69.70
48686;DHT22;34485;51.536;3.816;2023-06-24T14:50:00;28.00;69.40
48686;DHT22;34485;51.536;3.816;2023-06-24T14:52:26;27.90;70.20
48686;DHT22;34485;51.536;3.816;2023-06-24T14:54:51;27.60;70.30
48686;DHT22;34485;51.536;3.816;2023-06-24T14:57:17;27.70;71.50
48686;DHT22;34485;51.536;3.816;2023-06-24T14:59:43;27.60;69.90
48686;DHT22;34485;51.536;3.816;2023-06-24T15:02:08;27.70;68.80
48686;DHT22;34485;51.536;3.816;2023-06-24T15:04:35;27.70;69.40
48686;DHT22;34485;51.536;3.816;2023-06-24T15:07:01;27.70;70.00
48686;DHT22;34485;51.536;3.816;2023-06-24T15:09:27;27.70;69.30
48686;DHT22;34485;51.536;3.816;2023-06-24T15:11:53;27.60;69.00
48686;DHT22;34485;51.536;3.816;2023-06-24T15:14:19;27.70;67.90
48686;DHT22;34485;51.536;3.816;2023-06-24T15:16:45;27.70;67.20
48686;DHT22;34485;51.536;3.816;2023-06-24T15:19:11;27.80;68.00
48686;DHT22;34485;51.536;3.816;2023-06-24T15:21:36;27.80;67.30
48686;DHT22;34485;51.536;3.816;2023-06-24T15:24:02;27.80;67.60
48686;DHT22;34485;51.536;3.816;2023-06-24T15:26:28;27.80;68.60
48686;DHT22;34485;51.536;3.816;2023-06-24T15:28:53;27.70;67.40
48686;DHT22;34485;51.536;3.816;2023-06-24T15:31:19;27.60;68.50
48686;DHT22;34485;51.536;3.816;2023-06-24T15:33:45;27.50;68.00
48686;DHT22;34485;51.536;3.816;2023-06-24T15:36:11;27.30;68.70
48686;DHT22;34485;51.536;3.816;2023-06-24T15:38:36;27.00;68.50
48686;DHT22;34485;51.536;3.816;2023-06-24T15:41:02;26.90;68.90
48686;DHT22;34485;51.536;3.816;2023-06-24T15:43:27;26.90;67.90
48686;DHT22;34485;51.536;3.816;2023-06-24T15:45:53;26.80;67.30
48686;DHT22;34485;51.536;3.816;2023-06-24T15:48:19;26.80;68.50
48686;DHT22;34485;51.536;3.816;2023-06-24T15:50:44;26.70;69.70
48686;DHT22;34485;51.536;3.816;2023-06-24T15:53:10;26.40;69.50
48686;DHT22;34485;51.536;3.816;2023-06-24T15:55:36;26.40;70.40
48686;DHT22;34485;51.536;3.816;2023-06-24T15:58:01;26.30;70.00
48686;DHT22;34485;51.536;3.816;2023-06-24T16:00:27;26.20;72.50
48686;DHT22;34485;51.536;3.816;2023-06-24T16:02:53;26.20;70.50